Terminal Aerodrome Forecast
Issued by NWS Tallahassee, FL

Home | Current Version | Previous Version | Text Only | Print | Product List | Glossary On
Versions: 1 2 3 4 5 6 7 8 9 10 11 12 13 14
858
FTUS42 KTAE 141120
TAFTLH
TAF
KTLH 141120Z 1412/1512 06004KT P6SM SCT250
     FM141900 13006KT P6SM SCT250
     FM151000 10003KT 3SM BR SCT007 BKN015=

USA.gov is the U.S. government's official web portal to all federal, state and local government web resources and services.